Time;durP1;ratioP1;P1;durP2;ratioP2;P2;SDS_P1;SDS_P2;PMS_P1;PMS_P2;Temp;Humidity;BMP_temperature;BMP_pressure;BME280_temperature;BME280_humidity;BME280_pressure;Samples;Min_cycle;Max_cycle;Signal;HPM_P1;HPM_P2
2022/06/14 00:03:12;;;;;;;6.13;2.40;;;;;;;;;;5008851;28;20272;-83
2022/06/14 00:05:40;;;;;;;3.80;2.10;;;;;;;;;;5009650;28;20224;-80
2022/06/14 00:08:07;;;;;;;4.23;2.30;;;;;;;;;;5007235;28;20211;-80
2022/06/14 00:10:34;;;;;;;7.30;2.40;;;;;;;;;;5010885;28;20208;-81
2022/06/14 00:13:01;;;;;;;10.77;2.40;;;;;;;;;;5017126;28;20308;-81
2022/06/14 00:15:30;;;;;;;5.50;2.67;;;;;;;;;;5014110;28;20610;-82
2022/06/14 00:17:57;;;;;;;3.20;2.07;;;;;;;;;;5015295;28;20704;-81
2022/06/14 00:20:24;;;;;;;6.23;2.50;;;;;;;;;;5015533;28;20220;-82
2022/06/14 00:22:52;;;;;;;3.50;2.20;;;;;;;;;;5011284;28;20212;-81
2022/06/14 00:25:23;;;;;;;4.03;2.20;;;;;;;;;;5004969;28;20225;-82
2022/06/14 00:27:50;;;;;;;5.43;2.40;;;;;;;;;;5004664;28;20263;-81
2022/06/14 00:30:18;;;;;;;3.67;2.13;;;;;;;;;;5004234;28;20208;-82
2022/06/14 00:32:46;;;;;;;6.13;2.33;;;;;;;;;;5001395;28;20294;-82
2022/06/14 00:35:14;;;;;;;5.50;2.60;;;;;;;;;;5009001;28;20235;-81
2022/06/14 00:37:41;;;;;;;5.90;2.33;;;;;;;;;;5009893;28;20228;-81
2022/06/14 00:40:10;;;;;;;5.30;2.50;;;;;;;;;;5009855;28;20200;-80
2022/06/14 00:42:37;;;;;;;3.97;2.50;;;;;;;;;;5018156;28;20181;-79
2022/06/14 00:45:06;;;;;;;4.50;2.33;;;;;;;;;;5033804;28;20281;-79
2022/06/14 00:47:35;;;;;;;5.43;2.53;;;;;;;;;;5032482;28;20224;-83
2022/06/14 00:50:06;;;;;;;10.70;2.87;;;;;;;;;;5016361;28;20203;-81
2022/06/14 00:52:34;;;;;;;4.10;2.73;;;;;;;;;;5012833;28;20197;-83
2022/06/14 00:55:03;;;;;;;4.13;2.40;;;;;;;;;;5012139;28;20227;-81
2022/06/14 00:57:34;;;;;;;3.20;2.13;;;;;;;;;;5018175;28;20295;-80
2022/06/14 01:00:03;;;;;;;3.93;2.47;;;;;;;;;;5017881;28;20235;-82
2022/06/14 01:02:34;;;;;;;6.23;2.40;;;;;;;;;;5008825;28;20208;-82
2022/06/14 01:05:05;;;;;;;8.63;2.67;;;;;;;;;;5016323;28;20226;-81
2022/06/14 01:07:34;;;;;;;6.33;2.47;;;;;;;;;;5013421;28;20711;-81
2022/06/14 01:10:03;;;;;;;9.60;2.63;;;;;;;;;;5008085;28;21022;-81
2022/06/14 01:12:33;;;;;;;3.73;2.53;;;;;;;;;;5012714;28;20214;-81
2022/06/14 01:15:03;;;;;;;6.70;2.60;;;;;;;;;;5012071;28;20290;-81
2022/06/14 01:17:32;;;;;;;4.10;2.30;;;;;;;;;;5014410;28;20208;-82
2022/06/14 01:19:59;;;;;;;4.87;2.43;;;;;;;;;;5018833;28;20204;-82
2022/06/14 01:22:29;;;;;;;7.43;2.73;;;;;;;;;;5012541;28;20205;-82
2022/06/14 01:24:57;;;;;;;6.90;2.70;;;;;;;;;;5016348;28;20230;-81
2022/06/14 01:27:26;;;;;;;5.00;2.80;;;;;;;;;;5010610;28;20223;-81
2022/06/14 01:29:57;;;;;;;5.63;3.27;;;;;;;;;;5012673;28;20652;-80
2022/06/14 01:32:26;;;;;;;8.60;3.53;;;;;;;;;;5015620;28;20204;-80
2022/06/14 01:34:58;;;;;;;3.67;2.50;;;;;;;;;;5014842;28;20239;-83
2022/06/14 01:37:26;;;;;;;7.47;2.60;;;;;;;;;;5011578;28;20197;-83
2022/06/14 01:39:55;;;;;;;8.17;2.63;;;;;;;;;;5006351;28;20660;-80
2022/06/14 01:42:24;;;;;;;5.73;2.60;;;;;;;;;;5006903;28;20204;-80
2022/06/14 01:44:56;;;;;;;4.10;2.27;;;;;;;;;;5011941;28;20757;-80
2022/06/14 01:47:28;;;;;;;6.83;2.60;;;;;;;;;;5016599;28;20291;-83
2022/06/14 01:52:52;;;;;;;3.90;2.50;;;;;;;;;;5016793;28;20208;-80
2022/06/14 01:55:23;;;;;;;5.03;2.30;;;;;;;;;;5008720;28;20287;-80
2022/06/14 01:57:56;;;;;;;8.00;2.50;;;;;;;;;;5010065;28;20211;-82
2022/06/14 02:00:26;;;;;;;4.70;2.47;;;;;;;;;;5009117;28;20208;-82
2022/06/14 02:04:37;;;;;;;6.23;2.73;;;;;;;;;;5005579;28;20208;-81
2022/06/14 02:05:45;;;;;;;4.50;2.43;;;;;;;;;;5007892;28;20654;-79
2022/06/14 02:08:14;;;;;;;7.33;2.43;;;;;;;;;;5008772;28;20691;-81
2022/06/14 02:10:46;;;;;;;5.80;2.80;;;;;;;;;;5008571;28;20207;-80
2022/06/14 02:13:15;;;;;;;3.40;2.17;;;;;;;;;;5013066;28;20216;-80
2022/06/14 02:15:45;;;;;;;6.23;2.53;;;;;;;;;;5008961;28;20248;-80
2022/06/14 02:18:19;;;;;;;6.13;2.43;;;;;;;;;;5008938;28;20211;-80
2022/06/14 02:20:50;;;;;;;4.40;2.00;;;;;;;;;;5014434;28;20200;-81
2022/06/14 02:23:18;;;;;;;4.33;2.13;;;;;;;;;;5020239;28;20208;-80
2022/06/14 02:25:48;;;;;;;6.20;2.97;;;;;;;;;;5020501;22;20664;-78
2022/06/14 02:28:18;;;;;;;6.00;2.40;;;;;;;;;;5013347;28;20208;-78
2022/06/14 02:30:47;;;;;;;4.50;2.33;;;;;;;;;;5006724;28;20572;-76
2022/06/14 02:33:17;;;;;;;3.80;2.37;;;;;;;;;;5011207;28;20244;-78
2022/06/14 02:35:47;;;;;;;9.57;2.43;;;;;;;;;;5005341;28;20308;-77
2022/06/14 02:38:17;;;;;;;4.57;2.40;;;;;;;;;;5005562;28;20208;-78
2022/06/14 02:40:47;;;;;;;5.00;2.47;;;;;;;;;;5006988;28;20271;-76
2022/06/14 02:43:17;;;;;;;5.97;2.50;;;;;;;;;;5009928;28;20230;-77
2022/06/14 02:45:47;;;;;;;4.97;2.67;;;;;;;;;;5004141;28;20197;-78
2022/06/14 02:48:16;;;;;;;4.40;2.77;;;;;;;;;;5004269;28;20209;-79
2022/06/14 02:50:45;;;;;;;6.73;2.57;;;;;;;;;;5006300;28;20695;-79
2022/06/14 02:53:14;;;;;;;5.63;2.30;;;;;;;;;;5009750;28;20279;-78
2022/06/14 02:55:44;;;;;;;7.23;2.50;;;;;;;;;;5006700;28;20228;-78
2022/06/14 02:58:14;;;;;;;5.80;2.70;;;;;;;;;;5004266;28;20295;-77
2022/06/14 03:00:45;;;;;;;7.17;2.47;;;;;;;;;;5005971;28;20207;-75
2022/06/14 03:03:17;;;;;;;12.23;2.57;;;;;;;;;;5009463;28;20250;-77
2022/06/14 03:05:46;;;;;;;4.87;2.77;;;;;;;;;;5011369;28;20258;-77
2022/06/14 03:08:15;;;;;;;6.87;2.93;;;;;;;;;;5003058;28;20239;-75
2022/06/14 03:10:46;;;;;;;8.00;2.83;;;;;;;;;;5007634;28;20647;-78
2022/06/14 03:13:20;;;;;;;5.50;2.80;;;;;;;;;;5012218;28;20267;-76
2022/06/14 03:15:51;;;;;;;9.47;3.03;;;;;;;;;;5003212;28;20411;-77
2022/06/14 03:18:21;;;;;;;5.03;2.50;;;;;;;;;;5003779;28;20612;-78
2022/06/14 03:20:53;;;;;;;6.17;2.60;;;;;;;;;;5001883;28;20224;-78
2022/06/14 03:23:23;;;;;;;5.47;2.30;;;;;;;;;;5004121;28;20220;-76
2022/06/14 03:25:54;;;;;;;15.90;3.07;;;;;;;;;;5005828;28;20228;-78
2022/06/14 03:28:23;;;;;;;5.83;2.50;;;;;;;;;;5002568;28;20272;-77
2022/06/14 03:30:55;;;;;;;7.17;2.50;;;;;;;;;;5002525;28;20731;-78
2022/06/14 03:33:25;;;;;;;6.73;2.80;;;;;;;;;;5004287;28;20233;-75
2022/06/14 03:35:53;;;;;;;5.67;2.40;;;;;;;;;;5003474;28;20230;-78
2022/06/14 03:38:28;;;;;;;5.53;2.80;;;;;;;;;;5000945;28;20308;-78
2022/06/14 03:40:55;;;;;;;4.30;2.30;;;;;;;;;;5001440;28;20235;-78
2022/06/14 03:43:23;;;;;;;9.00;2.50;;;;;;;;;;4997738;28;20698;-78
2022/06/14 03:45:56;;;;;;;5.73;2.20;;;;;;;;;;5004355;28;20199;-78
2022/06/14 03:48:24;;;;;;;6.07;2.50;;;;;;;;;;5003934;28;20209;-78
2022/06/14 03:50:57;;;;;;;9.70;2.40;;;;;;;;;;5002838;28;20577;-77
2022/06/14 03:53:34;;;;;;;2.97;2.33;;;;;;;;;;4999977;28;21105;-77
2022/06/14 03:56:09;;;;;;;5.83;2.30;;;;;;;;;;5002330;28;20221;-78
2022/06/14 03:58:44;;;;;;;4.47;2.13;;;;;;;;;;5002466;28;20753;-79
2022/06/14 04:01:17;;;;;;;7.53;2.40;;;;;;;;;;5005234;28;20199;-77
2022/06/14 04:03:56;;;;;;;7.20;2.60;;;;;;;;;;5005283;28;20220;-79
2022/06/14 04:06:30;;;;;;;7.63;2.20;;;;;;;;;;5004498;28;20325;-76
2022/06/14 04:09:02;;;;;;;6.20;2.30;;;;;;;;;;5002259;28;20200;-77
2022/06/14 04:11:35;;;;;;;5.70;2.33;;;;;;;;;;4998576;28;20292;-79
2022/06/14 04:14:07;;;;;;;5.97;2.27;;;;;;;;;;4994486;28;20240;-79
2022/06/14 04:16:40;;;;;;;6.77;2.40;;;;;;;;;;4995784;28;20254;-77
2022/06/14 04:19:12;;;;;;;10.87;2.30;;;;;;;;;;4993289;28;20698;-79
2022/06/14 04:21:41;;;;;;;6.97;2.17;;;;;;;;;;4993615;28;20318;-79
2022/06/14 04:24:11;;;;;;;5.70;1.90;;;;;;;;;;4997614;28;20239;-79
2022/06/14 04:26:42;;;;;;;5.70;2.03;;;;;;;;;;5000444;28;20197;-77
2022/06/14 04:29:13;;;;;;;6.90;1.83;;;;;;;;;;4996967;28;20208;-79
2022/06/14 04:31:44;;;;;;;9.00;2.07;;;;;;;;;;4994644;28;20208;-78
2022/06/14 04:34:15;;;;;;;3.57;1.57;;;;;;;;;;4999817;28;20220;-79
2022/06/14 04:36:45;;;;;;;6.90;2.00;;;;;;;;;;5000174;28;20297;-79
2022/06/14 04:39:15;;;;;;;4.93;1.60;;;;;;;;;;5000401;28;20208;-79
2022/06/14 04:41:44;;;;;;;5.37;1.77;;;;;;;;;;4994992;28;20204;-77
2022/06/14 04:44:13;;;;;;;5.00;1.90;;;;;;;;;;4991510;28;20629;-79
2022/06/14 04:46:42;;;;;;;4.53;1.60;;;;;;;;;;4994673;28;20588;-78
2022/06/14 04:49:15;;;;;;;7.07;1.90;;;;;;;;;;5002876;28;20204;-78
2022/06/14 04:51:46;;;;;;;4.97;2.00;;;;;;;;;;5004264;28;20296;-78
2022/06/14 04:54:17;;;;;;;6.37;1.80;;;;;;;;;;5007629;28;20745;-77
2022/06/14 04:56:47;;;;;;;5.87;1.77;;;;;;;;;;5009892;28;20230;-80
2022/06/14 04:59:17;;;;;;;5.77;1.67;;;;;;;;;;5004598;28;20208;-79
2022/06/14 05:01:47;;;;;;;6.13;1.87;;;;;;;;;;5004709;28;20669;-77
2022/06/14 05:04:18;;;;;;;3.13;1.53;;;;;;;;;;5003470;28;20223;-78
2022/06/14 05:06:48;;;;;;;4.33;1.80;;;;;;;;;;5000975;28;20200;-78
2022/06/14 05:09:18;;;;;;;10.40;1.90;;;;;;;;;;5003072;28;20208;-78
2022/06/14 05:11:48;;;;;;;4.87;1.73;;;;;;;;;;5009084;28;20788;-80
2022/06/14 05:14:17;;;;;;;3.57;1.83;;;;;;;;;;5002480;28;20231;-78
2022/06/14 05:16:45;;;;;;;5.67;1.60;;;;;;;;;;5006882;28;20220;-77
2022/06/14 05:19:16;;;;;;;2.80;1.50;;;;;;;;;;5005944;28;20998;-78
2022/06/14 05:21:48;;;;;;;6.83;2.13;;;;;;;;;;5002552;28;20300;-79
2022/06/14 05:24:16;;;;;;;6.47;1.93;;;;;;;;;;5004401;28;20562;-78
2022/06/14 05:26:51;;;;;;;5.80;1.50;;;;;;;;;;5006975;28;20285;-77
2022/06/14 05:29:22;;;;;;;5.80;1.90;;;;;;;;;;5000277;28;20303;-79
2022/06/14 05:31:54;;;;;;;9.90;1.87;;;;;;;;;;5005285;28;20209;-80
2022/06/14 05:34:25;;;;;;;5.47;1.50;;;;;;;;;;5004831;28;20232;-78
2022/06/14 05:36:58;;;;;;;5.03;2.03;;;;;;;;;;5003543;28;20227;-78
2022/06/14 05:39:29;;;;;;;5.63;1.97;;;;;;;;;;5010236;28;20291;-79
2022/06/14 05:41:59;;;;;;;4.73;1.90;;;;;;;;;;5007692;28;20205;-78
2022/06/14 05:44:29;;;;;;;4.27;1.73;;;;;;;;;;5007804;28;20236;-78
2022/06/14 05:46:57;;;;;;;5.03;1.63;;;;;;;;;;5006712;28;20204;-78
2022/06/14 05:49:26;;;;;;;3.63;1.77;;;;;;;;;;5007267;28;20578;-80
2022/06/14 05:51:56;;;;;;;6.50;1.83;;;;;;;;;;5001688;28;20582;-78
2022/06/14 05:54:26;;;;;;;5.87;1.63;;;;;;;;;;5007815;28;20234;-78
2022/06/14 05:56:55;;;;;;;5.23;1.90;;;;;;;;;;5004521;28;20317;-79
2022/06/14 05:59:31;;;;;;;3.50;1.53;;;;;;;;;;5010304;28;20265;-79
2022/06/14 06:02:00;;;;;;;7.53;1.70;;;;;;;;;;5003581;28;21085;-78
2022/06/14 06:04:30;;;;;;;5.77;1.63;;;;;;;;;;5006574;28;20713;-78
2022/06/14 06:07:01;;;;;;;4.67;1.60;;;;;;;;;;5008540;28;20200;-78
2022/06/14 06:09:32;;;;;;;4.77;1.50;;;;;;;;;;5006342;28;20712;-77
2022/06/14 06:12:03;;;;;;;5.70;1.70;;;;;;;;;;5010999;28;20205;-77
2022/06/14 06:14:32;;;;;;;3.60;1.63;;;;;;;;;;5005258;28;20316;-78
2022/06/14 06:17:01;;;;;;;4.00;1.90;;;;;;;;;;5009208;28;20240;-79
2022/06/14 06:19:33;;;;;;;8.13;1.80;;;;;;;;;;5007945;28;20334;-78
2022/06/14 06:22:03;;;;;;;6.30;2.10;;;;;;;;;;5005771;28;20677;-77
2022/06/14 06:24:34;;;;;;;7.17;1.70;;;;;;;;;;5005022;28;20233;-79
2022/06/14 06:27:03;;;;;;;5.17;1.70;;;;;;;;;;5005129;28;20200;-76
2022/06/14 06:29:42;;;;;;;3.83;1.47;;;;;;;;;;5008906;28;20236;-80
2022/06/14 06:32:10;;;;;;;7.73;1.87;;;;;;;;;;5008724;28;20322;-77
2022/06/14 06:34:37;;;;;;;4.67;1.50;;;;;;;;;;5005820;28;20699;-79
2022/06/14 06:37:10;;;;;;;4.83;1.37;;;;;;;;;;5012143;28;20256;-79
2022/06/14 06:39:43;;;;;;;5.07;1.60;;;;;;;;;;5006253;28;20293;-77
2022/06/14 06:42:13;;;;;;;6.73;1.50;;;;;;;;;;5009207;28;20231;-78
2022/06/14 06:44:47;;;;;;;4.47;1.20;;;;;;;;;;5006921;28;20239;-78
2022/06/14 06:47:16;;;;;;;6.23;1.60;;;;;;;;;;5004123;28;20200;-79
2022/06/14 06:49:53;;;;;;;5.60;1.67;;;;;;;;;;4995646;28;20213;-76
2022/06/14 06:52:24;;;;;;;5.27;1.50;;;;;;;;;;4997495;28;20208;-77
2022/06/14 06:54:55;;;;;;;5.33;1.47;;;;;;;;;;4995459;28;20650;-78
2022/06/14 06:57:23;;;;;;;6.63;1.73;;;;;;;;;;4994539;28;20224;-79
2022/06/14 06:59:53;;;;;;;3.80;1.30;;;;;;;;;;5000965;28;20206;-79
2022/06/14 07:02:23;;;;;;;4.77;1.33;;;;;;;;;;4997783;28;20239;-79
2022/06/14 07:05:04;;;;;;;4.87;1.30;;;;;;;;;;4991555;28;20243;-76
2022/06/14 07:07:36;;;;;;;8.17;1.50;;;;;;;;;;4999241;28;20556;-79
2022/06/14 07:10:06;;;;;;;3.00;1.10;;;;;;;;;;4991104;28;20227;-78
2022/06/14 07:12:35;;;;;;;8.97;1.20;;;;;;;;;;4996904;28;20973;-79
2022/06/14 07:15:05;;;;;;;7.50;1.43;;;;;;;;;;4997024;28;20200;-77
2022/06/14 07:17:34;;;;;;;3.33;1.30;;;;;;;;;;5002966;28;20221;-77
2022/06/14 07:20:03;;;;;;;4.43;1.40;;;;;;;;;;4994802;28;20209;-78
2022/06/14 07:22:35;;;;;;;5.37;1.63;;;;;;;;;;4996738;28;20209;-79
2022/06/14 07:25:05;;;;;;;4.83;1.37;;;;;;;;;;4996705;28;20954;-79
2022/06/14 07:27:35;;;;;;;11.27;1.77;;;;;;;;;;5001283;28;20799;-78
2022/06/14 07:30:07;;;;;;;6.23;1.50;;;;;;;;;;4996120;28;20208;-78
2022/06/14 07:32:36;;;;;;;13.03;1.90;;;;;;;;;;4996639;28;20244;-78
2022/06/14 07:35:03;;;;;;;7.23;1.43;;;;;;;;;;4991763;28;20300;-76
2022/06/14 07:37:42;;;;;;;6.33;1.67;;;;;;;;;;4998903;28;20221;-75
2022/06/14 07:40:15;;;;;;;15.37;1.80;;;;;;;;;;4995048;28;20290;-78
2022/06/14 07:42:44;;;;;;;9.77;1.60;;;;;;;;;;4999053;28;20738;-78
2022/06/14 07:45:17;;;;;;;5.93;1.40;;;;;;;;;;5001465;28;20212;-76
2022/06/14 07:47:47;;;;;;;6.03;1.47;;;;;;;;;;4997073;28;20226;-79
2022/06/14 07:50:16;;;;;;;5.63;1.10;;;;;;;;;;4996937;28;20206;-77
2022/06/14 07:52:46;;;;;;;4.93;1.30;;;;;;;;;;5000396;28;20201;-76
2022/06/14 07:55:17;;;;;;;4.00;1.33;;;;;;;;;;4994153;28;20204;-75
2022/06/14 07:57:46;;;;;;;2.47;0.90;;;;;;;;;;4997479;28;20288;-77
2022/06/14 08:03:03;;;;;;;6.00;1.37;;;;;;;;;;4996697;28;20323;-77
2022/06/14 08:05:34;;;;;;;6.03;1.23;;;;;;;;;;4997147;28;20291;-77
2022/06/14 08:08:04;;;;;;;6.63;1.30;;;;;;;;;;4994328;28;20646;-77
2022/06/14 08:10:37;;;;;;;6.13;1.53;;;;;;;;;;5000335;28;20205;-78
2022/06/14 08:13:07;;;;;;;3.63;1.20;;;;;;;;;;4996884;28;20225;-78
2022/06/14 08:15:38;;;;;;;4.53;1.30;;;;;;;;;;5000800;28;20226;-77
2022/06/14 08:18:07;;;;;;;6.47;1.30;;;;;;;;;;5005274;28;20235;-77
2022/06/14 08:20:39;;;;;;;8.47;1.37;;;;;;;;;;5002478;28;20550;-77
2022/06/14 08:23:09;;;;;;;4.43;1.30;;;;;;;;;;5002624;28;20597;-77
2022/06/14 08:25:42;;;;;;;6.80;1.40;;;;;;;;;;4963834;28;1116403;-77
2022/06/14 08:28:12;;;;;;;5.60;1.70;;;;;;;;;;4998198;28;20200;-77
2022/06/14 08:30:40;;;;;;;6.50;1.47;;;;;;;;;;5001769;28;20291;-77
2022/06/14 08:33:11;;;;;;;6.20;1.37;;;;;;;;;;4993134;28;20236;-77
2022/06/14 08:35:40;;;;;;;4.47;1.10;;;;;;;;;;4999364;28;20203;-77
2022/06/14 08:38:10;;;;;;;7.03;1.10;;;;;;;;;;4997587;28;20913;-77
2022/06/14 08:40:46;;;;;;;4.33;1.77;;;;;;;;;;4997677;28;20783;-77
2022/06/14 08:43:14;;;;;;;3.90;1.20;;;;;;;;;;4992724;28;20827;-76
2022/06/14 08:45:46;;;;;;;5.50;1.30;;;;;;;;;;4991190;28;20646;-77
2022/06/14 08:48:25;;;;;;;5.07;1.37;;;;;;;;;;4996810;28;20197;-77
2022/06/14 08:51:02;;;;;;;6.93;1.63;;;;;;;;;;4992825;28;20232;-77
2022/06/14 08:53:46;;;;;;;9.33;1.50;;;;;;;;;;4992167;28;20227;-75
2022/06/14 08:56:27;;;;;;;9.23;1.87;;;;;;;;;;4994953;28;20612;-75
2022/06/14 08:59:09;;;;;;;4.13;1.30;;;;;;;;;;4993437;28;20202;-77
2022/06/14 09:01:46;;;;;;;5.03;1.30;;;;;;;;;;4997137;28;20701;-77
2022/06/14 09:04:21;;;;;;;6.07;1.30;;;;;;;;;;4984569;28;20322;-75
2022/06/14 09:06:57;;;;;;;10.97;1.60;;;;;;;;;;4983928;28;20234;-77
2022/06/14 09:09:40;;;;;;;8.33;1.80;;;;;;;;;;4988504;28;21043;-77
2022/06/14 09:12:26;;;;;;;7.60;1.80;;;;;;;;;;4990497;28;20572;-76
2022/06/14 09:15:05;;;;;;;2.57;1.40;;;;;;;;;;4992013;28;20221;-76
2022/06/14 09:17:55;;;;;;;7.87;1.90;;;;;;;;;;4994965;28;20221;-76
2022/06/14 09:20:29;;;;;;;6.70;1.40;;;;;;;;;;4993450;28;20205;-77
2022/06/14 09:23:04;;;;;;;5.87;1.20;;;;;;;;;;4993040;28;20330;-77
2022/06/14 09:25:39;;;;;;;5.83;1.50;;;;;;;;;;4996459;28;20220;-78
2022/06/14 09:28:18;;;;;;;3.90;1.67;;;;;;;;;;5001003;28;20283;-76
2022/06/14 09:30:58;;;;;;;7.23;2.00;;;;;;;;;;4999110;28;20208;-76
2022/06/14 09:33:43;;;;;;;6.73;1.33;;;;;;;;;;4994475;28;20355;-76
2022/06/14 09:36:33;;;;;;;7.10;1.60;;;;;;;;;;4996117;28;20291;-76
2022/06/14 09:39:06;;;;;;;6.73;1.53;;;;;;;;;;4999562;28;20761;-76
2022/06/14 09:41:57;;;;;;;6.67;1.60;;;;;;;;;;4990742;28;20236;-76
2022/06/14 09:44:34;;;;;;;5.83;1.53;;;;;;;;;;4989292;28;20284;-76
2022/06/14 09:47:26;;;;;;;4.40;1.30;;;;;;;;;;4999987;28;20196;-76
2022/06/14 09:50:03;;;;;;;7.50;1.57;;;;;;;;;;4998296;28;20201;-76
2022/06/14 09:52:40;;;;;;;8.43;1.53;;;;;;;;;;5000575;28;20287;-77
2022/06/14 09:55:26;;;;;;;9.37;1.40;;;;;;;;;;5000552;28;20219;-77
2022/06/14 09:58:05;;;;;;;7.50;1.63;;;;;;;;;;5010536;28;20217;-77
2022/06/14 10:00:38;;;;;;;4.37;1.20;;;;;;;;;;5000887;28;20549;-76
2022/06/14 10:03:24;;;;;;;4.63;1.30;;;;;;;;;;5001411;28;20259;-77
2022/06/14 10:05:59;;;;;;;5.23;1.47;;;;;;;;;;5006445;28;20211;-74
2022/06/14 10:08:33;;;;;;;6.07;1.40;;;;;;;;;;5005265;28;20295;-75
2022/06/14 10:11:18;;;;;;;9.03;1.70;;;;;;;;;;5000527;28;20247;-76
2022/06/14 10:13:52;;;;;;;5.13;1.33;;;;;;;;;;4994657;28;20227;-77
2022/06/14 10:16:30;;;;;;;7.63;1.33;;;;;;;;;;5000832;28;20219;-77
2022/06/14 10:19:07;;;;;;;3.97;1.50;;;;;;;;;;4999411;28;20292;-77
2022/06/14 10:21:38;;;;;;;5.87;1.43;;;;;;;;;;4994002;28;20215;-77
2022/06/14 10:24:12;;;;;;;4.77;1.10;;;;;;;;;;5004164;28;20232;-74
2022/06/14 10:29:48;;;;;;;3.70;1.30;;;;;;;;;;4998548;28;20202;-75
2022/06/14 10:32:43;;;;;;;8.47;1.40;;;;;;;;;;4994234;28;20204;-76
2022/06/14 10:35:15;;;;;;;11.50;1.50;;;;;;;;;;4994818;28;20331;-76
2022/06/14 10:37:57;;;;;;;4.23;1.50;;;;;;;;;;4999102;28;20236;-75
2022/06/14 10:40:45;;;;;;;6.77;1.40;;;;;;;;;;4978670;28;20209;-75
2022/06/14 10:43:14;;;;;;;5.27;1.20;;;;;;;;;;4966779;28;20323;-78
2022/06/14 10:45:45;;;;;;;7.93;1.30;;;;;;;;;;4972945;28;20228;-77
2022/06/14 10:48:23;;;;;;;5.13;1.10;;;;;;;;;;4966962;28;20204;-78
2022/06/14 10:50:57;;;;;;;4.30;1.50;;;;;;;;;;4987014;28;20204;-76
2022/06/14 10:53:33;;;;;;;8.07;1.60;;;;;;;;;;5003530;28;20234;-77
2022/06/14 10:56:18;;;;;;;10.30;1.60;;;;;;;;;;4999400;28;20298;-76
2022/06/14 10:59:12;;;;;;;6.57;1.20;;;;;;;;;;4993579;28;20609;-77
2022/06/14 11:01:44;;;;;;;3.23;1.20;;;;;;;;;;4998385;28;20283;-78
2022/06/14 11:04:16;;;;;;;2.67;1.07;;;;;;;;;;4997333;28;20224;-79
2022/06/14 11:07:08;;;;;;;4.57;1.20;;;;;;;;;;5001407;28;20205;-78
2022/06/14 11:09:41;;;;;;;3.40;1.30;;;;;;;;;;4913603;28;20216;-77
2022/06/14 11:12:18;;;;;;;3.50;1.40;;;;;;;;;;5012734;28;20228;-77
2022/06/14 11:14:50;;;;;;;9.33;1.43;;;;;;;;;;5007742;28;20228;-76
2022/06/14 11:17:27;;;;;;;5.87;1.27;;;;;;;;;;5000539;28;20579;-79
2022/06/14 11:20:03;;;;;;;5.83;1.70;;;;;;;;;;5000264;28;20239;-75
2022/06/14 11:22:39;;;;;;;3.10;1.30;;;;;;;;;;5008437;28;20218;-75
2022/06/14 11:25:13;;;;;;;9.67;1.50;;;;;;;;;;4996642;28;20231;-77
2022/06/14 11:27:44;;;;;;;3.63;1.03;;;;;;;;;;4996877;28;20236;-77
2022/06/14 11:30:18;;;;;;;2.87;1.10;;;;;;;;;;4997553;28;20621;-76
2022/06/14 11:32:50;;;;;;;6.53;1.30;;;;;;;;;;4995786;28;20671;-75
2022/06/14 11:35:25;;;;;;;5.83;1.40;;;;;;;;;;5003755;28;20211;-77
2022/06/14 11:38:04;;;;;;;4.63;1.10;;;;;;;;;;5000268;28;20324;-78
2022/06/14 11:40:34;;;;;;;4.83;1.07;;;;;;;;;;4998839;28;20287;-77
2022/06/14 11:43:12;;;;;;;2.93;1.10;;;;;;;;;;4996938;28;20640;-78
2022/06/14 11:45:44;;;;;;;6.63;1.33;;;;;;;;;;5001352;28;20295;-78
2022/06/14 11:48:14;;;;;;;3.07;0.93;;;;;;;;;;5030879;22;20393;-77
2022/06/14 11:50:45;;;;;;;4.77;1.27;;;;;;;;;;5020091;28;20211;-77
2022/06/14 11:53:31;;;;;;;4.50;1.10;;;;;;;;;;5031572;28;20254;-76
2022/06/14 11:56:03;;;;;;;4.73;1.00;;;;;;;;;;5025345;28;20298;-76
2022/06/14 11:58:35;;;;;;;4.10;1.17;;;;;;;;;;5024862;28;20277;-76
2022/06/14 12:01:08;;;;;;;3.17;1.30;;;;;;;;;;5010594;28;20240;-77
2022/06/14 12:03:56;;;;;;;5.07;1.20;;;;;;;;;;5015484;28;20647;-77
2022/06/14 12:06:29;;;;;;;3.07;1.10;;;;;;;;;;5002241;28;20236;-76
2022/06/14 12:09:13;;;;;;;4.73;1.13;;;;;;;;;;4993321;28;20288;-77
2022/06/14 12:11:43;;;;;;;5.77;1.13;;;;;;;;;;5005313;28;20203;-77
2022/06/14 12:14:26;;;;;;;6.07;1.17;;;;;;;;;;5004921;28;20232;-78
2022/06/14 12:16:56;;;;;;;3.00;1.00;;;;;;;;;;4996167;28;20268;-77
2022/06/14 12:19:25;;;;;;;3.70;1.10;;;;;;;;;;5010333;28;20207;-76
2022/06/14 12:21:58;;;;;;;5.00;1.13;;;;;;;;;;5003107;28;20212;-77
2022/06/14 12:26:34;;;;;;;7.33;1.30;;;;;;;;;;5003896;28;20236;-77
2022/06/14 12:27:19;;;;;;;3.97;1.40;;;;;;;;;;4998686;28;20203;-77
2022/06/14 12:29:50;;;;;;;5.27;1.30;;;;;;;;;;5006975;28;20204;-79
2022/06/14 12:32:21;;;;;;;5.93;1.10;;;;;;;;;;5012356;28;20291;-77
2022/06/14 12:34:50;;;;;;;3.63;1.10;;;;;;;;;;5005821;28;20307;-78
2022/06/14 12:37:27;;;;;;;4.17;1.17;;;;;;;;;;5009955;28;20200;-76
2022/06/14 12:39:56;;;;;;;7.40;1.40;;;;;;;;;;5007338;28;20224;-77
2022/06/14 12:42:29;;;;;;;4.80;1.07;;;;;;;;;;5010762;28;20216;-77
2022/06/14 12:44:58;;;;;;;2.73;1.20;;;;;;;;;;5001773;28;20205;-78
2022/06/14 12:47:27;;;;;;;6.87;1.17;;;;;;;;;;4998968;28;20280;-75
2022/06/14 12:50:01;;;;;;;6.67;1.27;;;;;;;;;;5012657;28;20216;-78
2022/06/14 12:52:32;;;;;;;7.93;1.30;;;;;;;;;;4998938;28;20212;-76
2022/06/14 12:55:01;;;;;;;4.13;1.10;;;;;;;;;;4994582;28;20283;-78
2022/06/14 12:57:34;;;;;;;4.47;1.30;;;;;;;;;;5004169;28;20246;-77
2022/06/14 13:00:04;;;;;;;7.43;1.30;;;;;;;;;;4993176;28;20297;-78
2022/06/14 13:02:35;;;;;;;3.93;1.37;;;;;;;;;;4997550;28;20326;-75
2022/06/14 13:05:04;;;;;;;6.03;1.20;;;;;;;;;;4999539;28;20204;-77
2022/06/14 13:07:34;;;;;;;4.93;0.90;;;;;;;;;;4998418;28;20289;-75
2022/06/14 13:10:09;;;;;;;3.10;1.03;;;;;;;;;;5002794;28;20200;-75
2022/06/14 13:12:43;;;;;;;7.10;1.00;;;;;;;;;;5001971;28;20205;-80
2022/06/14 13:15:11;;;;;;;2.60;1.10;;;;;;;;;;5001711;28;20400;-76
2022/06/14 13:17:49;;;;;;;3.67;1.13;;;;;;;;;;5003565;28;20224;-78
2022/06/14 13:20:21;;;;;;;3.87;1.07;;;;;;;;;;5003226;28;20266;-79
2022/06/14 13:22:55;;;;;;;3.93;1.10;;;;;;;;;;5000218;28;20674;-77
2022/06/14 13:25:30;;;;;;;7.60;1.10;;;;;;;;;;5006239;28;20292;-77
2022/06/14 13:28:04;;;;;;;3.70;0.93;;;;;;;;;;4996787;28;20208;-77
2022/06/14 13:30:36;;;;;;;4.83;1.03;;;;;;;;;;4999255;28;20207;-78
2022/06/14 13:33:14;;;;;;;4.07;1.10;;;;;;;;;;4998860;28;20586;-76
2022/06/14 13:35:47;;;;;;;6.63;1.30;;;;;;;;;;4999813;28;20566;-75
2022/06/14 13:38:17;;;;;;;3.57;1.03;;;;;;;;;;4995592;28;20668;-77
2022/06/14 13:40:47;;;;;;;4.57;1.30;;;;;;;;;;5003164;28;20200;-78
2022/06/14 13:43:20;;;;;;;27.07;2.47;;;;;;;;;;5003513;28;20221;-76
2022/06/14 13:45:52;;;;;;;3.03;1.20;;;;;;;;;;5005286;28;20654;-77
2022/06/14 13:48:23;;;;;;;2.37;0.87;;;;;;;;;;5005901;28;20312;-78
2022/06/14 13:50:52;;;;;;;6.33;1.20;;;;;;;;;;5001686;28;20764;-75
2022/06/14 13:53:21;;;;;;;7.77;1.40;;;;;;;;;;5003514;28;20236;-78
2022/06/14 13:55:51;;;;;;;10.83;1.27;;;;;;;;;;5005275;28;20218;-79
2022/06/14 13:58:23;;;;;;;5.67;1.20;;;;;;;;;;5001593;28;20233;-77
2022/06/14 14:00:55;;;;;;;11.63;1.50;;;;;;;;;;5002693;28;20336;-77
2022/06/14 14:03:29;;;;;;;5.97;1.37;;;;;;;;;;4996030;28;20230;-76
2022/06/14 14:06:01;;;;;;;4.00;1.10;;;;;;;;;;5003300;28;20630;-77
2022/06/14 14:08:35;;;;;;;4.17;1.00;;;;;;;;;;5007753;28;20726;-75
2022/06/14 14:11:08;;;;;;;4.30;1.13;;;;;;;;;;5007382;28;20206;-76
2022/06/14 14:13:43;;;;;;;6.97;1.20;;;;;;;;;;5007678;28;20263;-78
2022/06/14 14:16:12;;;;;;;8.53;2.30;;;;;;;;;;5005909;28;20231;-78
2022/06/14 14:18:44;;;;;;;3.00;1.07;;;;;;;;;;5006928;28;20711;-77
2022/06/14 14:21:13;;;;;;;4.23;1.10;;;;;;;;;;5008076;28;20309;-78
2022/06/14 14:23:51;;;;;;;4.40;1.00;;;;;;;;;;5002855;28;20344;-78
2022/06/14 14:26:21;;;;;;;2.40;0.93;;;;;;;;;;5002179;28;20212;-78
2022/06/14 14:28:51;;;;;;;3.60;1.00;;;;;;;;;;5007843;28;20282;-78
2022/06/14 14:31:29;;;;;;;6.50;1.10;;;;;;;;;;4999414;28;21009;-76
2022/06/14 14:33:58;;;;;;;5.70;1.20;;;;;;;;;;5004618;28;20219;-77
2022/06/14 14:36:40;;;;;;;5.17;1.30;;;;;;;;;;5015887;28;20232;-76
2022/06/14 14:39:11;;;;;;;3.60;1.00;;;;;;;;;;5016963;28;20283;-78
2022/06/14 14:41:42;;;;;;;3.63;1.20;;;;;;;;;;5014489;28;20232;-77
2022/06/14 14:44:14;;;;;;;4.07;0.97;;;;;;;;;;5017264;28;20492;-78
2022/06/14 14:46:44;;;;;;;10.03;1.00;;;;;;;;;;5021070;28;20219;-77
2022/06/14 14:49:13;;;;;;;3.83;0.90;;;;;;;;;;5008641;28;20578;-77
2022/06/14 14:51:44;;;;;;;2.60;1.00;;;;;;;;;;5010543;28;20205;-76
2022/06/14 14:54:15;;;;;;;3.33;1.00;;;;;;;;;;5006912;28;20221;-77
2022/06/14 14:56:45;;;;;;;4.90;1.00;;;;;;;;;;5008764;28;20206;-77
2022/06/14 14:59:17;;;;;;;5.17;1.10;;;;;;;;;;5009811;28;20231;-74
2022/06/14 15:07:33;;;;;;;4.93;0.90;;;;;;;;;;5003952;28;20204;-77
2022/06/14 15:10:05;;;;;;;4.90;1.10;;;;;;;;;;4999364;28;20234;-77
2022/06/14 15:12:35;;;;;;;2.60;0.93;;;;;;;;;;5009152;28;20579;-75
2022/06/14 15:15:06;;;;;;;3.30;1.10;;;;;;;;;;5006561;28;20215;-76
2022/06/14 15:20:21;;;;;;;3.73;0.87;;;;;;;;;;5000109;28;20225;-76
2022/06/14 15:22:50;;;;;;;3.67;1.17;;;;;;;;;;5007090;28;20202;-77
2022/06/14 15:25:19;;;;;;;4.87;0.93;;;;;;;;;;5006510;28;20205;-76
2022/06/14 15:27:49;;;;;;;9.37;1.20;;;;;;;;;;5001600;28;20206;-77
2022/06/14 15:30:37;;;;;;;2.73;1.10;;;;;;;;;;5006459;28;20568;-76
2022/06/14 15:33:14;;;;;;;6.10;0.90;;;;;;;;;;5012981;28;20657;-77